Time;durP1;ratioP1;P1;durP2;ratioP2;P2;SDS_P1;SDS_P2;PMS_P1;PMS_P2;Temp;Humidity;BMP_temperature;BMP_pressure;BME280_temperature;BME280_humidity;BME280_pressure;Samples;Min_cycle;Max_cycle;Signal;HPM_P1;HPM_P2
2021/04/21 00:01:53;;;;;;;;;;;;;;;28.04;26.50;100642.25;5080440;28;1013;-38
2021/04/21 00:04:18;;;;;;;;;;;;;;;28.05;26.73;100641.22;5081064;28;879;-32
2021/04/21 00:06:43;;;;;;;;;;;;;;;27.99;26.74;100642.00;5081266;28;1968;-30
2021/04/21 00:09:13;;;;;;;;;;;;;;;27.87;26.95;100638.94;5080941;28;775;-37
2021/04/21 00:11:38;;;;;;;;;;;;;;;28.34;26.26;100639.44;5081196;28;1215;-37
2021/04/21 00:14:04;;;;;;;;;;;;;;;28.38;25.99;100642.59;5081211;28;791;-37
2021/04/21 00:16:29;;;;;;;;;;;;;;;28.10;26.25;100646.91;5094449;28;1099;-31
2021/04/21 00:18:54;;;;;;;;;;;;;;;27.78;27.15;100645.50;5077684;28;759;-33
2021/04/21 00:21:20;;;;;;;;;;;;;;;28.41;26.06;100646.81;5078851;28;826;-37
2021/04/21 00:23:45;;;;;;;;;;;;;;;27.80;26.85;100643.44;5077015;28;1165;-35
2021/04/21 00:26:11;;;;;;;;;;;;;;;28.16;26.55;100645.28;5077487;28;1973;-37
2021/04/21 00:28:37;;;;;;;;;;;;;;;28.11;26.39;100651.25;5076834;28;954;-31
2021/04/21 00:31:04;;;;;;;;;;;;;;;27.88;26.83;100654.13;5077109;28;887;-37
2021/04/21 00:33:29;;;;;;;;;;;;;;;28.43;26.28;100650.13;5098038;28;824;-33
2021/04/21 00:35:54;;;;;;;;;;;;;;;28.25;26.47;100656.81;5080429;28;826;-37
2021/04/21 00:38:20;;;;;;;;;;;;;;;28.14;26.35;100654.63;5080218;28;852;-34
2021/04/21 00:40:45;;;;;;;;;;;;;;;27.93;26.78;100648.16;5099057;28;740;-31
2021/04/21 00:43:22;;;;;;;;;;;;;;;28.22;26.39;100646.38;5098449;28;822;-29
2021/04/21 00:45:49;;;;;;;;;;;;;;;27.37;27.93;100647.69;5095189;28;1629;-31
2021/04/21 00:48:33;;;;;;;;;;;;;;;28.09;26.42;100647.91;5060146;28;1894;-37
2021/04/21 00:51:02;;;;;;;;;;;;;;;28.03;26.76;100645.16;5078437;28;795;-28
2021/04/21 00:53:31;;;;;;;;;;;;;;;27.95;26.57;100651.50;5077378;28;742;-33
2021/04/21 00:55:59;;;;;;;;;;;;;;;28.36;26.36;100653.63;5077102;28;780;-32
2021/04/21 00:58:26;;;;;;;;;;;;;;;28.42;26.05;100653.88;5077733;28;727;-37
2021/04/21 01:00:51;;;;;;;;;;;;;;;28.18;26.39;100655.91;5076924;28;867;-37
2021/04/21 01:03:16;;;;;;;;;;;;;;;27.97;26.72;100647.59;5091331;28;946;-30
2021/04/21 01:05:49;;;;;;;;;;;;;;;28.31;26.25;100657.91;5077591;28;850;-29
2021/04/21 01:08:15;;;;;;;;;;;;;;;28.22;26.09;100651.78;5093557;28;1972;-38
2021/04/21 01:10:44;;;;;;;;;;;;;;;28.22;26.48;100658.03;5093498;28;767;-37
2021/04/21 01:13:10;;;;;;;;;;;;;;;27.98;26.74;100654.66;5096714;28;1271;-33
2021/04/21 01:15:36;;;;;;;;;;;;;;;28.24;26.30;100655.97;5097745;28;1149;-28
2021/04/21 01:18:02;;;;;;;;;;;;;;;28.63;25.67;100653.00;5062899;28;1093;-28
2021/04/21 01:20:31;;;;;;;;;;;;;;;28.09;26.71;100655.22;5076489;28;820;-34
2021/04/21 01:23:06;;;;;;;;;;;;;;;28.22;26.25;100657.19;5076761;28;722;-35
2021/04/21 01:25:50;;;;;;;;;;;;;;;28.03;26.51;100655.97;5076268;28;773;-33
2021/04/21 01:28:20;;;;;;;;;;;;;;;28.40;26.06;100651.38;5076329;28;1906;-31
2021/04/21 01:30:45;;;;;;;;;;;;;;;28.04;27.05;100647.69;5077150;28;844;-30
2021/04/21 01:33:18;;;;;;;;;;;;;;;28.20;26.52;100648.44;5090093;28;927;-37
2021/04/21 01:36:04;;;;;;;;;;;;;;;28.09;26.60;100642.50;5077683;28;767;-32
2021/04/21 01:38:29;;;;;;;;;;;;;;;28.32;26.54;100646.91;5076378;28;1305;-37
2021/04/21 01:41:03;;;;;;;;;;;;;;;28.67;25.64;100654.31;5059050;28;832;-37
2021/04/21 01:43:32;;;;;;;;;;;;;;;28.38;26.13;100653.41;5077575;28;748;-37
2021/04/21 01:45:58;;;;;;;;;;;;;;;28.04;26.53;100660.34;5082000;28;1590;-29
2021/04/21 01:48:23;;;;;;;;;;;;;;;28.28;26.51;100661.00;5096203;28;1901;-37
2021/04/21 01:50:49;;;;;;;;;;;;;;;28.67;25.71;100654.31;5097390;28;732;-30
2021/04/21 01:53:14;;;;;;;;;;;;;;;28.02;26.82;100663.25;5097108;28;813;-38
2021/04/21 01:55:42;;;;;;;;;;;;;;;28.18;26.28;100662.16;5097283;28;947;-38
2021/04/21 01:58:26;;;;;;;;;;;;;;;28.03;26.68;100656.78;5079060;28;835;-34
2021/04/21 02:00:53;;;;;;;;;;;;;;;27.44;27.55;100662.13;5097118;28;755;-37
2021/04/21 02:03:18;;;;;;;;;;;;;;;28.52;26.27;100656.25;5079011;28;986;-37
2021/04/21 02:05:52;;;;;;;;;;;;;;;28.31;26.15;100663.31;5097349;28;814;-38
2021/04/21 02:08:38;;;;;;;;;;;;;;;28.10;26.49;100663.13;5096874;28;1952;-36
2021/04/21 02:11:22;;;;;;;;;;;;;;;28.32;26.34;100659.59;5082362;28;1546;-37
2021/04/21 02:14:06;;;;;;;;;;;;;;;28.72;25.87;100665.38;5076558;28;760;-31
2021/04/21 02:16:42;;;;;;;;;;;;;;;28.39;26.08;100662.38;5077009;28;1048;-38
2021/04/21 02:19:26;;;;;;;;;;;;;;;28.16;26.35;100658.78;5075708;28;762;-37
2021/04/21 02:22:10;;;;;;;;;;;;;;;28.50;26.26;100661.84;5076428;28;769;-32
2021/04/21 02:24:54;;;;;;;;;;;;;;;28.76;25.55;100665.81;5076379;28;808;-33
2021/04/21 02:27:32;;;;;;;;;;;;;;;28.41;26.10;100655.72;5076576;28;1969;-33
2021/04/21 02:30:10;;;;;;;;;;;;;;;28.17;26.45;100654.22;5076631;28;823;-36
2021/04/21 02:32:38;;;;;;;;;;;;;;;28.48;25.98;100658.50;5084214;28;950;-31
2021/04/21 02:35:15;;;;;;;;;;;;;;;28.82;25.67;100654.22;5076322;28;776;-38
2021/04/21 02:37:47;;;;;;;;;;;;;;;28.59;25.55;100655.25;5058329;28;792;-38
2021/04/21 02:40:38;;;;;;;;;;;;;;;28.25;26.39;100654.09;5076752;28;783;-38
2021/04/21 02:43:24;;;;;;;;;;;;;;;28.09;26.97;100658.72;5060503;28;1079;-38
2021/04/21 02:46:08;;;;;;;;;;;;;;;28.73;25.69;100667.03;5061971;28;1559;-31
2021/04/21 02:48:41;;;;;;;;;;;;;;;28.68;25.65;100668.66;5076094;28;1914;-29
2021/04/21 02:51:12;;;;;;;;;;;;;;;28.32;26.24;100665.84;5075182;28;819;-33
2021/04/21 02:53:41;;;;;;;;;;;;;;;28.15;26.30;100676.06;5074793;28;1094;-33
2021/04/21 02:56:25;;;;;;;;;;;;;;;28.62;25.84;100673.00;5076226;28;792;-31
2021/04/21 02:59:05;;;;;;;;;;;;;;;28.75;25.83;100674.97;5076343;28;814;-38
2021/04/21 03:01:42;;;;;;;;;;;;;;;28.51;25.73;100692.47;5075899;28;993;-31
2021/04/21 03:04:14;;;;;;;;;;;;;;;28.20;26.21;100687.16;5076149;28;855;-38
2021/04/21 03:06:41;;;;;;;;;;;;;;;28.11;26.59;100689.13;5076269;28;1961;-33
2021/04/21 03:09:14;;;;;;;;;;;;;;;28.71;25.75;100692.66;5076053;28;845;-35
2021/04/21 03:11:39;;;;;;;;;;;;;;;28.81;25.60;100692.31;5080387;28;1107;-36
2021/04/21 03:14:09;;;;;;;;;;;;;;;28.49;25.69;100698.06;5078575;28;826;-38
2021/04/21 03:16:45;;;;;;;;;;;;;;;28.21;26.34;100694.22;5091371;28;1221;-29
2021/04/21 03:19:10;;;;;;;;;;;;;;;28.28;26.50;100693.47;5074567;28;767;-36
2021/04/21 03:21:36;;;;;;;;;;;;;;;28.64;26.06;100699.88;5075177;28;767;-27
2021/04/21 03:24:22;;;;;;;;;;;;;;;28.61;25.88;100703.81;5074787;28;853;-32
2021/04/21 03:26:48;;;;;;;;;;;;;;;28.22;26.33;100709.44;5075110;28;1910;-31
2021/04/21 03:29:17;;;;;;;;;;;;;;;28.02;26.70;100711.06;5075704;28;894;-34
2021/04/21 03:31:42;;;;;;;;;;;;;;;28.14;26.54;100714.13;5075308;28;942;-37
2021/04/21 03:34:08;;;;;;;;;;;;;;;28.21;26.62;100712.34;5075928;28;731;-36
2021/04/21 03:36:34;;;;;;;;;;;;;;;28.51;25.91;100719.53;5076333;28;819;-37
2021/04/21 03:38:59;;;;;;;;;;;;;;;28.11;26.57;100718.06;5075762;28;796;-38
2021/04/21 03:41:25;;;;;;;;;;;;;;;27.83;27.05;100729.56;5075018;28;815;-32
2021/04/21 03:43:50;;;;;;;;;;;;;;;26.19;24.39;100724.38;5076141;28;863;-30
2021/04/21 03:46:15;;;;;;;;;;;;;;;24.34;26.75;100731.00;5081672;28;1558;-36
2021/04/21 03:48:41;;;;;;;;;;;;;;;23.65;26.63;100735.44;5077890;28;1906;-34
2021/04/21 03:51:06;;;;;;;;;;;;;;;22.69;27.50;100730.69;5097352;28;768;-33
2021/04/21 03:53:33;;;;;;;;;;;;;;;22.09;28.26;100740.09;5098556;28;1349;-34
2021/04/21 03:55:58;;;;;;;;;;;;;;;24.30;26.97;100735.91;5100027;28;743;-30
2021/04/21 03:58:25;;;;;;;;;;;;;;;25.48;26.20;100740.28;5081270;28;1026;-31
2021/04/21 04:00:51;;;;;;;;;;;;;;;25.33;24.33;100747.38;5099238;28;844;-36
2021/04/21 04:03:20;;;;;;;;;;;;;;;24.99;24.20;100741.22;5070646;28;955;-27
2021/04/21 04:05:46;;;;;;;;;;;;;;;25.54;23.59;100744.97;5099465;28;791;-32
2021/04/21 04:08:12;;;;;;;;;;;;;;;24.00;24.72;100756.06;5099055;28;1909;-37
2021/04/21 04:10:37;;;;;;;;;;;;;;;23.39;25.57;100754.22;5099315;28;774;-41
2021/04/21 04:13:03;;;;;;;;;;;;;;;22.97;25.79;100754.75;5065250;28;997;-41
2021/04/21 04:15:29;;;;;;;;;;;;;;;22.88;26.11;100753.00;5060747;28;1291;-42
2021/04/21 04:17:54;;;;;;;;;;;;;;;22.72;26.27;100749.16;5074652;28;1159;-40
2021/04/21 04:20:19;;;;;;;;;;;;;;;22.54;26.74;100754.47;5080775;28;968;-40
2021/04/21 04:22:47;;;;;;;;;;;;;;;22.15;27.36;100750.22;5080903;28;819;-42
2021/04/21 04:25:13;;;;;;;;;;;;;;;22.07;27.64;100750.13;5099053;28;827;-43
2021/04/21 04:27:38;;;;;;;;;;;;;;;22.31;27.39;100756.75;5098739;28;1918;-42
2021/04/21 04:30:03;;;;;;;;;;;;;;;22.24;27.93;100757.34;5080809;28;842;-38
2021/04/21 04:32:29;;;;;;;;;;;;;;;22.21;28.21;100757.66;5068384;28;1336;-40
2021/04/21 04:34:55;;;;;;;;;;;;;;;22.50;28.26;100759.31;5079134;28;748;-41
2021/04/21 04:37:21;;;;;;;;;;;;;;;22.76;28.22;100755.06;5078615;28;847;-37
2021/04/21 04:39:46;;;;;;;;;;;;;;;22.97;28.19;100760.09;5098812;28;747;-36
2021/04/21 04:42:11;;;;;;;;;;;;;;;23.13;28.14;100766.63;5098967;28;815;-39
2021/04/21 04:44:40;;;;;;;;;;;;;;;23.11;28.14;100769.47;5098564;28;779;-41
2021/04/21 04:47:06;;;;;;;;;;;;;;;23.80;27.74;100767.91;5097382;28;1910;-37
2021/04/21 04:49:32;;;;;;;;;;;;;;;24.37;27.03;100768.34;5080324;28;787;-35
2021/04/21 04:51:58;;;;;;;;;;;;;;;24.74;26.89;100776.97;5080814;28;787;-35
2021/04/21 04:54:23;;;;;;;;;;;;;;;24.84;27.08;100779.50;5098255;28;847;-34
2021/04/21 04:56:48;;;;;;;;;;;;;;;24.92;27.14;100778.72;5098095;28;799;-37
2021/04/21 04:59:13;;;;;;;;;;;;;;;24.94;27.38;100774.00;5098396;28;817;-34
2021/04/21 05:01:39;;;;;;;;;;;;;;;24.93;27.53;100775.00;5092742;28;1013;-36
2021/04/21 05:04:04;;;;;;;;;;;;;;;25.12;27.32;100781.06;5077297;28;867;-38
2021/04/21 05:06:34;;;;;;;;;;;;;;;24.98;27.57;100786.09;5076372;28;1957;-37
2021/04/21 05:09:02;;;;;;;;;;;;;;;24.79;28.12;100781.88;5076644;28;783;-39
2021/04/21 05:11:27;;;;;;;;;;;;;;;24.79;28.28;100790.75;5080059;28;1179;-38
2021/04/21 05:13:52;;;;;;;;;;;;;;;24.86;28.31;100792.81;5080004;28;768;-38
2021/04/21 05:16:27;;;;;;;;;;;;;;;24.95;28.28;100791.81;5095370;28;1102;-37
2021/04/21 05:19:10;;;;;;;;;;;;;;;24.99;28.39;100800.41;5078036;28;803;-37
2021/04/21 05:21:54;;;;;;;;;;;;;;;24.98;28.49;100798.72;5077411;28;788;-38
2021/04/21 05:24:38;;;;;;;;;;;;;;;25.06;28.49;100796.03;5077550;28;1313;-38
2021/04/21 05:27:03;;;;;;;;;;;;;;;25.16;28.61;100802.09;5077345;28;1975;-37
2021/04/21 05:29:52;;;;;;;;;;;;;;;25.25;28.57;100802.09;5077894;28;804;-37
2021/04/21 05:32:26;;;;;;;;;;;;;;;25.23;28.62;100801.41;5077191;28;942;-37
2021/04/21 05:35:03;;;;;;;;;;;;;;;25.25;28.64;100800.25;5077414;28;827;-34
2021/04/21 05:37:44;;;;;;;;;;;;;;;25.26;28.76;100806.44;5077587;28;764;-35
2021/04/21 05:40:21;;;;;;;;;;;;;;;24.81;27.24;100807.59;5077132;28;768;-36
2021/04/21 05:43:09;;;;;;;;;;;;;;;24.51;27.46;100800.94;5077267;28;820;-36
2021/04/21 05:45:49;;;;;;;;;;;;;;;24.14;27.62;100803.00;5071030;28;1582;-31
2021/04/21 05:48:33;;;;;;;;;;;;;;;23.95;28.05;100808.47;5077658;28;1969;-35
2021/04/21 05:51:13;;;;;;;;;;;;;;;23.95;28.58;100808.47;5075403;28;867;-36
2021/04/21 05:53:47;;;;;;;;;;;;;;;23.82;28.22;100808.88;5068053;28;1021;-33
2021/04/21 05:56:18;;;;;;;;;;;;;;;23.83;28.18;100802.53;5089590;28;1063;-36
2021/04/21 05:58:43;;;;;;;;;;;;;;;23.84;28.21;100804.19;5074916;28;790;-36
2021/04/21 06:01:27;;;;;;;;;;;;;;;24.06;28.26;100814.53;5076879;28;924;-36
2021/04/21 06:03:54;;;;;;;;;;;;;;;23.96;28.89;100811.97;5076385;28;854;-39
2021/04/21 06:06:19;;;;;;;;;;;;;;;24.23;28.50;100820.88;5076288;28;815;-36
2021/04/21 06:08:44;;;;;;;;;;;;;;;24.50;28.10;100818.09;5076206;28;1960;-39
2021/04/21 06:11:21;;;;;;;;;;;;;;;24.81;27.30;100826.41;5076654;28;1124;-38
2021/04/21 06:13:46;;;;;;;;;;;;;;;24.83;27.30;100819.03;5096600;28;759;-39
2021/04/21 06:16:15;;;;;;;;;;;;;;;24.67;27.02;100821.69;5095093;28;1238;-35
2021/04/21 06:18:41;;;;;;;;;;;;;;;24.81;26.70;100820.19;5076666;28;735;-33
2021/04/21 06:21:15;;;;;;;;;;;;;;;24.90;27.06;100827.31;5076536;28;837;-33
2021/04/21 06:23:41;;;;;;;;;;;;;;;24.91;26.71;100834.38;5076746;28;767;-34
2021/04/21 06:26:06;;;;;;;;;;;;;;;24.94;26.47;100833.22;5076646;28;839;-33
2021/04/21 06:28:31;;;;;;;;;;;;;;;24.92;26.30;100825.28;5076362;28;1905;-36
2021/04/21 06:31:03;;;;;;;;;;;;;;;25.05;25.76;100830.19;5076449;28;760;-34
2021/04/21 06:33:37;;;;;;;;;;;;;;;24.90;26.11;100835.38;5076106;28;982;-35
2021/04/21 06:36:03;;;;;;;;;;;;;;;24.91;25.97;100833.50;5076492;28;723;-36
2021/04/21 06:38:29;;;;;;;;;;;;;;;24.90;25.89;100839.88;5076447;28;824;-37
2021/04/21 06:40:54;;;;;;;;;;;;;;;24.84;25.53;100833.31;5076792;28;851;-35
2021/04/21 06:43:29;;;;;;;;;;;;;;;25.01;25.41;100839.59;5075080;28;742;-37
2021/04/21 06:45:55;;;;;;;;;;;;;;;25.01;25.09;100842.28;5080951;28;1578;-34
2021/04/21 06:48:26;;;;;;;;;;;;;;;24.87;25.10;100845.59;5095387;28;1901;-29
2021/04/21 06:50:52;;;;;;;;;;;;;;;24.74;25.30;100835.31;5096414;28;787;-36
2021/04/21 06:53:17;;;;;;;;;;;;;;;24.79;25.22;100843.75;5096298;28;859;-37
2021/04/21 06:55:42;;;;;;;;;;;;;;;24.80;25.35;100843.56;5096471;28;771;-33
2021/04/21 06:58:15;;;;;;;;;;;;;;;24.75;25.11;100845.91;5096180;28;780;-31
2021/04/21 07:00:40;;;;;;;;;;;;;;;24.68;25.14;100842.19;5096540;28;739;-36
2021/04/21 07:03:05;;;;;;;;;;;;;;;24.96;24.71;100844.63;5078647;28;1002;-36
2021/04/21 07:05:31;;;;;;;;;;;;;;;25.10;24.68;100834.22;5076262;28;755;-33
2021/04/21 07:08:10;;;;;;;;;;;;;;;25.16;24.85;100849.69;5076001;28;1902;-36
2021/04/21 07:10:53;;;;;;;;;;;;;;;25.06;25.35;100833.69;5076022;28;977;-33
2021/04/21 07:13:22;;;;;;;;;;;;;;;25.22;25.42;100845.50;5093997;28;1267;-37
2021/04/21 07:15:48;;;;;;;;;;;;;;;25.22;25.57;100838.28;5095919;28;1481;-33
2021/04/21 07:18:14;;;;;;;;;;;;;;;25.10;25.77;100837.75;5059739;28;1010;-34
2021/04/21 07:20:39;;;;;;;;;;;;;;;24.81;26.01;100847.09;5074525;28;855;-37
2021/04/21 07:23:05;;;;;;;;;;;;;;;24.81;25.93;100847.94;5074893;28;901;-37
2021/04/21 07:25:30;;;;;;;;;;;;;;;24.96;25.55;100857.25;5075531;28;837;-35
2021/04/21 07:27:56;;;;;;;;;;;;;;;24.63;25.30;100850.75;5079385;28;1981;-36
2021/04/21 07:30:25;;;;;;;;;;;;;;;24.83;25.61;100858.53;5079809;28;840;-35
2021/04/21 07:32:50;;;;;;;;;;;;;;;24.97;25.48;100864.31;5079244;28;1029;-36
2021/04/21 07:35:16;;;;;;;;;;;;;;;24.77;26.16;100865.44;5079221;28;799;-37
2021/04/21 07:37:43;;;;;;;;;;;;;;;24.70;25.97;100865.25;5077923;28;1413;-33
2021/04/21 07:40:24;;;;;;;;;;;;;;;24.93;26.21;100864.66;5079137;28;855;-31
2021/04/21 07:42:49;;;;;;;;;;;;;;;25.05;25.40;100862.50;5078381;28;825;-35
2021/04/21 07:45:15;;;;;;;;;;;;;;;25.10;25.83;100863.81;5079369;28;804;-33
2021/04/21 07:47:41;;;;;;;;;;;;;;;25.09;25.63;100862.97;5077750;28;1976;-35
2021/04/21 07:50:09;;;;;;;;;;;;;;;25.11;25.75;100860.97;5079091;28;887;-31
2021/04/21 07:52:35;;;;;;;;;;;;;;;25.21;25.32;100851.91;5079239;28;854;-31
2021/04/21 07:55:27;;;;;;;;;;;;;;;25.22;25.52;100856.25;5079283;28;787;-37
2021/04/21 07:57:58;;;;;;;;;;;;;;;25.07;25.60;100860.44;5076096;28;1383;-35
2021/04/21 08:00:24;;;;;;;;;;;;;;;25.02;26.34;100860.13;5078790;28;958;-38
2021/04/21 08:02:50;;;;;;;;;;;;;;;25.08;25.79;100855.91;5078864;28;931;-36
2021/04/21 08:05:16;;;;;;;;;;;;;;;25.16;25.77;100855.91;5077307;28;837;-40
2021/04/21 08:07:42;;;;;;;;;;;;;;;25.39;26.22;100852.56;5078849;28;1905;-36
2021/04/21 08:10:07;;;;;;;;;;;;;;;25.57;26.61;100856.94;5079239;28;793;-32
2021/04/21 08:12:34;;;;;;;;;;;;;;;25.71;26.73;100860.81;5090576;28;1273;-31
2021/04/21 08:15:06;;;;;;;;;;;;;;;25.78;26.65;100853.72;5099195;28;1306;-38
2021/04/21 08:17:48;;;;;;;;;;;;;;;25.97;26.70;100861.59;5086952;28;978;-39
2021/04/21 08:20:13;;;;;;;;;;;;;;;26.09;26.49;100859.38;5078952;28;805;-34
2021/04/21 08:22:39;;;;;;;;;;;;;;;26.25;26.50;100863.88;5078901;28;803;-31
2021/04/21 08:25:04;;;;;;;;;;;;;;;26.27;26.53;100865.41;5078745;28;971;-33
2021/04/21 08:27:29;;;;;;;;;;;;;;;26.27;26.55;100861.84;5078674;28;1905;-34
2021/04/21 08:29:55;;;;;;;;;;;;;;;26.28;26.43;100861.69;5078448;28;506;-33
2021/04/21 08:32:22;;;;;;;;;;;;;;;26.21;26.73;100860.69;5078075;28;997;-34
2021/04/21 08:34:47;;;;;;;;;;;;;;;26.14;27.11;100863.22;5078539;28;829;-32
2021/04/21 08:37:13;;;;;;;;;;;;;;;26.31;26.73;100863.16;5078183;28;760;-35
2021/04/21 08:39:38;;;;;;;;;;;;;;;26.27;26.80;100860.00;5078296;28;825;-33
2021/04/21 08:42:05;;;;;;;;;;;;;;;26.26;27.16;100860.16;5077701;28;791;-38
2021/04/21 08:44:35;;;;;;;;;;;;;;;26.25;27.04;100867.41;5078423;28;768;-34
2021/04/21 08:47:01;;;;;;;;;;;;;;;26.36;26.96;100857.31;5090341;28;1901;-35
2021/04/21 08:49:26;;;;;;;;;;;;;;;26.38;26.89;100863.34;5080249;28;830;-35
2021/04/21 08:51:52;;;;;;;;;;;;;;;26.54;27.06;100870.53;5098433;28;798;-34
2021/04/21 08:54:17;;;;;;;;;;;;;;;26.41;27.06;100871.06;5098300;28;846;-37
2021/04/21 08:56:43;;;;;;;;;;;;;;;26.45;27.19;100861.63;5079927;28;1082;-38
2021/04/21 08:59:09;;;;;;;;;;;;;;;26.45;27.10;100858.94;5080294;28;828;-37
2021/04/21 09:01:34;;;;;;;;;;;;;;;26.44;26.89;100862.66;5093432;28;1004;-29
2021/04/21 09:04:00;;;;;;;;;;;;;;;26.08;27.28;100871.16;5076664;28;1365;-31
2021/04/21 09:06:25;;;;;;;;;;;;;;;26.10;27.72;100866.44;5077733;28;799;-28
2021/04/21 09:08:51;;;;;;;;;;;;;;;26.04;27.91;100863.44;5077825;28;1906;-36
2021/04/21 09:11:19;;;;;;;;;;;;;;;25.94;27.90;100861.94;5079025;28;1136;-31
2021/04/21 09:13:48;;;;;;;;;;;;;;;26.07;27.86;100856.88;5097860;28;744;-35
2021/04/21 09:16:13;;;;;;;;;;;;;;;26.14;27.79;100859.72;5096190;28;1218;-27
2021/04/21 09:18:38;;;;;;;;;;;;;;;26.15;27.81;100853.28;5078251;28;752;-37
2021/04/21 09:21:04;;;;;;;;;;;;;;;26.15;27.81;100864.06;5077477;28;740;-35
2021/04/21 09:23:37;;;;;;;;;;;;;;;26.14;27.76;100862.41;5076427;28;1131;-33
2021/04/21 09:26:03;;;;;;;;;;;;;;;26.12;27.77;100850.94;5077828;28;822;-33
2021/04/21 09:28:36;;;;;;;;;;;;;;;26.20;27.75;100852.75;5076469;28;1968;-38
2021/04/21 09:31:01;;;;;;;;;;;;;;;25.81;24.33;100860.63;5077805;28;889;-37
2021/04/21 09:33:27;;;;;;;;;;;;;;;25.62;23.88;100864.50;5074762;28;898;-40
2021/04/21 09:35:52;;;;;;;;;;;;;;;25.54;23.13;100852.72;5076807;28;1469;-37
2021/04/21 09:38:21;;;;;;;;;;;;;;;25.38;23.53;100845.50;5077252;28;779;-35
2021/04/21 09:40:48;;;;;;;;;;;;;;;25.34;25.49;100836.06;5076529;28;862;-39
2021/04/21 09:43:22;;;;;;;;;;;;;;;25.31;24.84;100850.72;5076808;28;750;-33
2021/04/21 09:45:51;;;;;;;;;;;;;;;25.55;26.57;100848.19;5080623;28;1590;-32
2021/04/21 09:48:17;;;;;;;;;;;;;;;25.56;26.56;100849.84;5095636;28;1917;-32
2021/04/21 09:50:44;;;;;;;;;;;;;;;25.71;26.01;100841.94;5097256;28;808;-31
2021/04/21 09:53:19;;;;;;;;;;;;;;;25.66;24.14;100864.03;5097418;28;788;-36
2021/04/21 09:55:56;;;;;;;;;;;;;;;25.67;23.25;100849.53;5097155;28;825;-35
2021/04/21 09:58:40;;;;;;;;;;;;;;;25.58;23.36;100849.69;5097495;28;827;-38
2021/04/21 10:01:17;;;;;;;;;;;;;;;25.70;23.63;100842.13;5096953;28;990;-36
2021/04/21 10:03:43;;;;;;;;;;;;;;;25.52;26.76;100827.81;5076753;28;829;-37
2021/04/21 10:06:29;;;;;;;;;;;;;;;25.79;26.70;100836.53;5077094;28;722;-35
2021/04/21 10:08:54;;;;;;;;;;;;;;;25.91;26.77;100838.88;5075658;28;1901;-31
2021/04/21 10:11:19;;;;;;;;;;;;;;;26.03;26.75;100833.94;5077979;28;1140;-35
2021/04/21 10:13:45;;;;;;;;;;;;;;;25.79;27.30;100830.34;5097119;28;798;-29
2021/04/21 10:16:11;;;;;;;;;;;;;;;25.98;27.60;100826.41;5095530;28;1051;-33
2021/04/21 10:18:36;;;;;;;;;;;;;;;25.88;25.76;100820.34;5076192;28;815;-36
2021/04/21 10:21:02;;;;;;;;;;;;;;;25.70;25.47;100823.25;5077090;28;759;-35
2021/04/21 10:23:28;;;;;;;;;;;;;;;25.65;23.51;100821.94;5076550;28;836;-34
2021/04/21 10:25:53;;;;;;;;;;;;;;;25.53;23.42;100816.03;5075606;28;843;-31
2021/04/21 10:28:18;;;;;;;;;;;;;;;25.56;23.70;100822.91;5076228;28;1910;-32
2021/04/21 10:30:44;;;;;;;;;;;;;;;25.45;23.57;100832.19;5075262;28;748;-35
2021/04/21 10:33:09;;;;;;;;;;;;;;;25.38;23.77;100834.72;5075918;28;978;-35
2021/04/21 10:35:35;;;;;;;;;;;;;;;25.40;22.98;100824.63;5076596;28;793;-31
2021/04/21 10:38:00;;;;;;;;;;;;;;;25.42;23.12;100832.53;5076288;28;819;-30
2021/04/21 10:40:29;;;;;;;;;;;;;;;25.34;23.38;100825.28;5075494;28;775;-29
2021/04/21 10:42:58;;;;;;;;;;;;;;;25.41;22.78;100822.75;5076846;28;787;-34
2021/04/21 10:45:26;;;;;;;;;;;;;;;25.48;23.32;100818.38;5076420;28;1577;-31
2021/04/21 10:47:52;;;;;;;;;;;;;;;25.60;23.42;100816.19;5095313;28;1955;-32
2021/04/21 10:50:35;;;;;;;;;;;;;;;25.47;23.53;100824.81;5077476;28;859;-33
2021/04/21 10:53:01;;;;;;;;;;;;;;;24.52;23.28;100682.50;5074790;28;748;-33
2021/04/21 10:55:36;;;;;;;;;;;;;;;25.35;22.86;100831.53;5075276;28;830;-35
2021/04/21 10:58:01;;;;;;;;;;;;;;;25.15;22.80;100821.94;5075921;28;729;-33
2021/04/21 11:00:27;;;;;;;;;;;;;;;25.25;22.55;100810.16;5078177;28;838;-30
2021/04/21 11:02:59;;;;;;;;;;;;;;;25.46;23.83;100814.19;5080412;28;948;-35
2021/04/21 11:05:41;;;;;;;;;;;;;;;25.46;22.86;100808.81;5080357;28;812;-33
2021/04/21 11:08:10;;;;;;;;;;;;;;;25.76;22.15;100806.41;5080032;28;1901;-34
2021/04/21 11:10:35;;;;;;;;;;;;;;;25.63;22.31;100802.41;5061626;28;834;-34
2021/04/21 11:13:01;;;;;;;;;;;;;;;25.64;23.26;100804.06;5095591;28;1139;-31
2021/04/21 11:15:32;;;;;;;;;;;;;;;25.77;23.59;100808.09;5100365;28;1303;-33
2021/04/21 11:18:10;;;;;;;;;;;;;;;25.78;23.82;100810.63;5084580;28;1021;-31
2021/04/21 11:20:56;;;;;;;;;;;;;;;25.71;22.99;100798.84;5079668;28;746;-34
2021/04/21 11:23:39;;;;;;;;;;;;;;;25.64;22.86;100805.94;5079583;28;1314;-33
2021/04/21 11:26:23;;;;;;;;;;;;;;;25.60;22.84;100805.41;5079636;28;792;-31
2021/04/21 11:29:10;;;;;;;;;;;;;;;25.54;22.51;100798.84;5079797;28;1901;-30
2021/04/21 11:31:59;;;;;;;;;;;;;;;25.64;24.09;100795.16;5079445;28;899;-31
2021/04/21 11:34:24;;;;;;;;;;;;;;;25.71;24.93;100804.22;5079563;28;874;-32
2021/04/21 11:36:50;;;;;;;;;;;;;;;25.74;22.82;100789.59;5078019;28;812;-33
2021/04/21 11:39:35;;;;;;;;;;;;;;;25.81;24.83;100798.66;5079313;28;842;-33
2021/04/21 11:42:14;;;;;;;;;;;;;;;25.92;24.75;100789.38;5078028;28;784;-32
2021/04/21 11:44:52;;;;;;;;;;;;;;;25.98;25.05;100798.59;5079634;28;779;-35
2021/04/21 11:47:27;;;;;;;;;;;;;;;25.99;23.78;100784.13;5094241;28;1917;-34
2021/04/21 11:49:58;;;;;;;;;;;;;;;25.95;24.97;100782.78;5099572;28;755;-33
2021/04/21 11:52:40;;;;;;;;;;;;;;;26.02;23.33;100797.25;5099447;28;840;-34
2021/04/21 11:55:05;;;;;;;;;;;;;;;26.02;23.24;100786.47;5099829;28;739;-34
2021/04/21 11:57:30;;;;;;;;;;;;;;;26.25;24.81;100791.91;5099683;28;734;-30
2021/04/21 11:59:56;;;;;;;;;;;;;;;26.34;24.31;100789.22;5081353;28;522;-33
2021/04/21 12:02:21;;;;;;;;;;;;;;;26.25;24.19;100796.47;5088423;28;1017;-41
2021/04/21 12:04:49;;;;;;;;;;;;;;;26.45;24.01;100788.81;5079193;28;823;-31
2021/04/21 12:07:18;;;;;;;;;;;;;;;26.36;21.88;100789.88;5078848;28;2006;-32
2021/04/21 12:09:44;;;;;;;;;;;;;;;26.53;23.86;100787.91;5077681;28;800;-36
2021/04/21 12:12:10;;;;;;;;;;;;;;;26.50;24.46;100775.63;5086804;28;1134;-34
2021/04/21 12:14:35;;;;;;;;;;;;;;;26.58;24.26;100784.66;5098583;28;1041;-35
2021/04/21 12:17:08;;;;;;;;;;;;;;;26.60;22.51;100790.72;5090954;28;1036;-36
2021/04/21 12:19:33;;;;;;;;;;;;;;;26.59;23.80;100781.78;5078761;28;814;-34
2021/04/21 12:21:58;;;;;;;;;;;;;;;26.47;22.43;100781.38;5077635;28;776;-30
2021/04/21 12:24:24;;;;;;;;;;;;;;;26.67;23.38;100778.22;5078781;28;830;-29
2021/04/21 12:26:50;;;;;;;;;;;;;;;26.70;23.49;100772.47;5077052;28;1929;-35
2021/04/21 12:29:18;;;;;;;;;;;;;;;26.67;24.65;100769.28;5078393;28;858;-31
2021/04/21 12:31:43;;;;;;;;;;;;;;;26.55;24.46;100774.25;5076835;28;1017;-35
2021/04/21 12:34:12;;;;;;;;;;;;;;;26.62;24.69;100769.81;5078485;28;803;-31
2021/04/21 12:36:37;;;;;;;;;;;;;;;26.61;23.98;100777.06;5077338;28;752;-31
2021/04/21 12:39:07;;;;;;;;;;;;;;;26.51;22.48;100771.91;5078564;28;748;-30
2021/04/21 12:41:32;;;;;;;;;;;;;;;26.38;24.69;100771.66;5077891;28;860;-32
2021/04/21 12:44:17;;;;;;;;;;;;;;;26.42;23.94;100770.28;5078215;28;829;-34
2021/04/21 12:46:43;;;;;;;;;;;;;;;26.48;24.64;100771.41;5077719;28;1910;-22
2021/04/21 12:49:08;;;;;;;;;;;;;;;26.40;24.19;100778.56;5077872;28;869;-30
2021/04/21 12:51:33;;;;;;;;;;;;;;;26.31;24.57;100771.47;5078327;28;787;-23
2021/04/21 12:54:00;;;;;;;;;;;;;;;26.36;23.20;100771.00;5078155;28;825;-23
2021/04/21 12:56:36;;;;;;;;;;;;;;;26.35;24.08;100764.75;5077981;28;770;-23
2021/04/21 12:59:14;;;;;;;;;;;;;;;26.34;24.15;100762.25;5077897;28;835;-24
2021/04/21 13:01:39;;;;;;;;;;;;;;;26.40;23.77;100766.91;5077570;28;1022;-24
2021/04/21 13:04:05;;;;;;;;;;;;;;;26.34;22.17;100764.94;5078169;28;839;-22
2021/04/21 13:06:40;;;;;;;;;;;;;;;26.31;21.04;100760.69;5078209;28;819;-24